Time;durP1;ratioP1;P1;durP2;ratioP2;P2;SDS_P1;SDS_P2;PMS_P1;PMS_P2;Temp;Humidity;BMP_temperature;BMP_pressure;BME280_temperature;BME280_humidity;BME280_pressure;Samples;Min_cycle;Max_cycle;Signal;HPM_P1;HPM_P2
2021/07/16 00:00:35;;;;;;;9.75;5.18;;;;;;;;;;4653081;30;20040;-84
2021/07/16 00:03:01;;;;;;;9.52;4.97;;;;;;;;;;4666367;30;20046;-84
2021/07/16 00:05:26;;;;;;;7.40;5.10;;;;;;;;;;4656535;30;20038;-84
2021/07/16 00:07:52;;;;;;;8.77;5.10;;;;;;;;;;4656143;30;20499;-84
2021/07/16 00:10:19;;;;;;;8.18;4.72;;;;;;;;;;4670202;30;20046;-85
2021/07/16 00:12:46;;;;;;;7.50;5.25;;;;;;;;;;4652018;30;20034;-85
2021/07/16 00:15:13;;;;;;;8.45;5.50;;;;;;;;;;4655993;30;20041;-84
2021/07/16 00:17:40;;;;;;;10.07;5.75;;;;;;;;;;4641508;30;20042;-84
2021/07/16 00:20:06;;;;;;;8.10;4.82;;;;;;;;;;4684825;30;20502;-84
2021/07/16 00:22:32;;;;;;;8.68;5.03;;;;;;;;;;4655605;30;20403;-85
2021/07/16 00:24:57;;;;;;;8.10;5.07;;;;;;;;;;4654974;30;20037;-85
2021/07/16 00:27:23;;;;;;;8.73;5.10;;;;;;;;;;4656159;30;20034;-84
2021/07/16 00:29:48;;;;;;;9.77;5.10;;;;;;;;;;4655128;30;20042;-84
2021/07/16 00:32:14;;;;;;;9.38;5.72;;;;;;;;;;4642069;30;20042;-85
2021/07/16 00:34:39;;;;;;;7.53;5.20;;;;;;;;;;4654667;30;20180;-84
2021/07/16 00:37:05;;;;;;;11.13;5.55;;;;;;;;;;4655985;30;20407;-84
2021/07/16 00:39:31;;;;;;;7.03;5.32;;;;;;;;;;4688606;30;20033;-84
2021/07/16 00:41:57;;;;;;;6.43;4.80;;;;;;;;;;4656364;30;20038;-84
2021/07/16 00:44:24;;;;;;;9.02;5.65;;;;;;;;;;4655802;30;20041;-84
2021/07/16 00:46:49;;;;;;;9.15;6.18;;;;;;;;;;4682429;30;20026;-85
2021/07/16 00:49:15;;;;;;;9.15;5.55;;;;;;;;;;4668418;30;20029;-85
2021/07/16 00:51:41;;;;;;;10.10;5.45;;;;;;;;;;4685227;30;20037;-85
2021/07/16 00:54:07;;;;;;;7.78;4.95;;;;;;;;;;4669277;30;20046;-85
2021/07/16 00:56:33;;;;;;;9.35;5.43;;;;;;;;;;4669955;30;20369;-84
2021/07/16 00:58:58;;;;;;;10.85;5.38;;;;;;;;;;4660712;30;20060;-84
2021/07/16 01:01:24;;;;;;;8.32;4.75;;;;;;;;;;4654946;30;20476;-84
2021/07/16 01:03:50;;;;;;;9.65;5.55;;;;;;;;;;4668479;30;20042;-84
2021/07/16 01:06:16;;;;;;;8.95;4.95;;;;;;;;;;4659005;30;20046;-84
2021/07/16 01:08:41;;;;;;;9.68;5.50;;;;;;;;;;4667165;30;20117;-85
2021/07/16 01:11:07;;;;;;;8.68;5.25;;;;;;;;;;4641797;30;20042;-85
2021/07/16 01:13:33;;;;;;;8.43;5.00;;;;;;;;;;4652845;30;20079;-84
2021/07/16 01:15:58;;;;;;;7.50;5.00;;;;;;;;;;4652964;30;20129;-84
2021/07/16 01:18:24;;;;;;;10.60;5.30;;;;;;;;;;4666993;30;20046;-84
2021/07/16 01:20:50;;;;;;;9.68;5.40;;;;;;;;;;4667177;30;20038;-84
2021/07/16 01:23:21;;;;;;;9.98;4.88;;;;;;;;;;4667416;30;20046;-84
2021/07/16 01:25:47;;;;;;;9.55;5.47;;;;;;;;;;4664223;30;20069;-84
2021/07/16 01:28:12;;;;;;;7.70;5.55;;;;;;;;;;4666403;30;20035;-85
2021/07/16 01:30:38;;;;;;;8.75;5.05;;;;;;;;;;4649259;30;20055;-85
2021/07/16 01:33:05;;;;;;;8.55;5.35;;;;;;;;;;4651444;30;20061;-85
2021/07/16 01:35:31;;;;;;;10.07;5.35;;;;;;;;;;4675206;30;20033;-85
2021/07/16 01:37:57;;;;;;;10.43;5.60;;;;;;;;;;4645544;30;20038;-85
2021/07/16 01:40:24;;;;;;;10.95;5.45;;;;;;;;;;4665757;30;20472;-85
2021/07/16 01:42:58;;;;;;;10.95;5.63;;;;;;;;;;4649943;30;20034;-84
2021/07/16 01:45:33;;;;;;;10.63;6.20;;;;;;;;;;4665611;30;20034;-85
2021/07/16 01:48:02;;;;;;;11.27;5.13;;;;;;;;;;4666035;30;20038;-84
2021/07/16 01:50:29;;;;;;;7.55;5.55;;;;;;;;;;4666037;30;20500;-84
2021/07/16 01:52:55;;;;;;;7.38;4.88;;;;;;;;;;4669321;30;20048;-84
2021/07/16 01:55:22;;;;;;;8.57;5.00;;;;;;;;;;4651922;30;20034;-84
2021/07/16 01:57:59;;;;;;;8.35;5.20;;;;;;;;;;4670827;30;20570;-85
2021/07/16 02:00:35;;;;;;;13.13;5.47;;;;;;;;;;4665679;30;20093;-84
2021/07/16 02:03:04;;;;;;;8.00;5.38;;;;;;;;;;4664354;30;20046;-84
2021/07/16 02:05:30;;;;;;;11.32;5.75;;;;;;;;;;4665840;30;20048;-84
2021/07/16 02:08:12;;;;;;;8.65;5.60;;;;;;;;;;4666202;30;20141;-84
2021/07/16 02:10:37;;;;;;;10.40;5.50;;;;;;;;;;4668535;30;20045;-84
2021/07/16 02:13:04;;;;;;;10.82;5.40;;;;;;;;;;4655312;30;20041;-84
2021/07/16 02:15:32;;;;;;;9.68;5.45;;;;;;;;;;4668556;30;20048;-84
2021/07/16 02:17:59;;;;;;;10.38;5.68;;;;;;;;;;4685455;30;21285;-84
2021/07/16 02:20:29;;;;;;;8.73;5.60;;;;;;;;;;4669130;30;20041;-84
2021/07/16 02:22:57;;;;;;;8.65;5.40;;;;;;;;;;4684864;30;20080;-84
2021/07/16 02:25:25;;;;;;;9.75;5.45;;;;;;;;;;4684151;30;20073;-84
2021/07/16 02:28:05;;;;;;;9.10;5.90;;;;;;;;;;4654217;30;20422;-84
2021/07/16 02:30:30;;;;;;;10.23;5.80;;;;;;;;;;4666737;30;20514;-84
2021/07/16 02:32:58;;;;;;;12.02;5.95;;;;;;;;;;4670956;30;20037;-84
2021/07/16 02:35:24;;;;;;;7.68;5.20;;;;;;;;;;4682112;30;20041;-84
2021/07/16 02:37:50;;;;;;;12.98;5.80;;;;;;;;;;4668895;30;20081;-84
2021/07/16 02:40:18;;;;;;;11.50;6.22;;;;;;;;;;4655006;30;20038;-84
2021/07/16 02:42:44;;;;;;;11.68;6.65;;;;;;;;;;4671116;30;20047;-84
2021/07/16 02:45:12;;;;;;;9.38;5.93;;;;;;;;;;4668511;30;20080;-84
2021/07/16 02:47:39;;;;;;;11.52;5.70;;;;;;;;;;4682531;30;20173;-84
2021/07/16 02:50:15;;;;;;;11.02;6.90;;;;;;;;;;4671456;30;20033;-84
2021/07/16 02:52:42;;;;;;;12.00;6.25;;;;;;;;;;4669096;30;20046;-84
2021/07/16 02:55:08;;;;;;;13.40;6.80;;;;;;;;;;4657849;30;20049;-84
2021/07/16 02:57:34;;;;;;;11.10;6.50;;;;;;;;;;4662125;30;20049;-84
2021/07/16 02:59:59;;;;;;;12.02;6.20;;;;;;;;;;4672609;30;20112;-84
2021/07/16 03:02:29;;;;;;;16.35;6.90;;;;;;;;;;4670138;30;20083;-84
2021/07/16 03:04:55;;;;;;;13.57;6.63;;;;;;;;;;4688551;30;20541;-84
2021/07/16 03:07:21;;;;;;;10.05;6.03;;;;;;;;;;4655004;30;20082;-84
2021/07/16 03:09:46;;;;;;;11.75;6.07;;;;;;;;;;4673332;30;20057;-84
2021/07/16 03:12:12;;;;;;;10.73;6.70;;;;;;;;;;4669384;30;20397;-84
2021/07/16 03:14:37;;;;;;;8.95;5.80;;;;;;;;;;4669773;30;20041;-84
2021/07/16 03:17:03;;;;;;;13.35;6.30;;;;;;;;;;4655220;30;20061;-84
2021/07/16 03:19:29;;;;;;;16.25;7.00;;;;;;;;;;4642340;30;20073;-84
2021/07/16 03:21:54;;;;;;;11.57;6.22;;;;;;;;;;4668172;30;20485;-84
2021/07/16 03:24:20;;;;;;;10.88;6.20;;;;;;;;;;4653719;30;20100;-84
2021/07/16 03:26:45;;;;;;;11.15;6.60;;;;;;;;;;4638449;30;20039;-84
2021/07/16 03:29:12;;;;;;;10.82;6.28;;;;;;;;;;4669351;30;20611;-84
2021/07/16 03:31:38;;;;;;;11.82;6.13;;;;;;;;;;4671009;30;20042;-84
2021/07/16 03:34:03;;;;;;;10.93;5.90;;;;;;;;;;4654065;30;20378;-84
2021/07/16 03:36:29;;;;;;;10.50;5.97;;;;;;;;;;4654593;30;20051;-84
2021/07/16 03:38:54;;;;;;;12.40;6.20;;;;;;;;;;4668772;30;20062;-84
2021/07/16 03:41:19;;;;;;;13.25;6.18;;;;;;;;;;4650418;30;20518;-84
2021/07/16 03:43:45;;;;;;;10.63;5.85;;;;;;;;;;4648219;30;20050;-84
2021/07/16 03:46:10;;;;;;;10.15;5.78;;;;;;;;;;4668133;30;20058;-84
2021/07/16 03:48:37;;;;;;;10.80;6.28;;;;;;;;;;4654346;30;20093;-84
2021/07/16 03:51:03;;;;;;;10.07;6.13;;;;;;;;;;4654111;30;20062;-84
2021/07/16 03:53:28;;;;;;;11.65;6.10;;;;;;;;;;4665574;30;20042;-84
2021/07/16 03:55:53;;;;;;;11.02;6.25;;;;;;;;;;4663226;30;20053;-84
2021/07/16 03:58:19;;;;;;;9.98;6.00;;;;;;;;;;4653561;30;20519;-84
2021/07/16 04:00:45;;;;;;;11.20;6.00;;;;;;;;;;4667906;30;20038;-84
2021/07/16 04:03:10;;;;;;;9.02;5.85;;;;;;;;;;4666805;30;20042;-84
2021/07/16 04:05:37;;;;;;;9.10;5.63;;;;;;;;;;4654050;30;20038;-84
2021/07/16 04:08:05;;;;;;;11.80;6.30;;;;;;;;;;4680319;30;20065;-84
2021/07/16 04:10:36;;;;;;;14.38;6.32;;;;;;;;;;4686381;30;20038;-84
2021/07/16 04:13:06;;;;;;;11.57;6.10;;;;;;;;;;4686798;30;20141;-84
2021/07/16 04:15:32;;;;;;;13.82;6.13;;;;;;;;;;4672143;30;20041;-84
2021/07/16 04:18:01;;;;;;;12.88;6.43;;;;;;;;;;4682662;30;20084;-84
2021/07/16 04:20:29;;;;;;;15.73;6.63;;;;;;;;;;4681328;30;20507;-84
2021/07/16 04:22:55;;;;;;;11.13;6.10;;;;;;;;;;4657005;30;20044;-84
2021/07/16 04:25:20;;;;;;;11.77;5.53;;;;;;;;;;4656702;30;20518;-84
2021/07/16 04:27:49;;;;;;;11.65;5.93;;;;;;;;;;4671035;30;20034;-84
2021/07/16 04:30:16;;;;;;;11.50;5.72;;;;;;;;;;4684160;30;20065;-84
2021/07/16 04:32:42;;;;;;;11.80;6.30;;;;;;;;;;4667958;30;20680;-84
2021/07/16 04:35:09;;;;;;;11.98;5.88;;;;;;;;;;4682298;30;20073;-84
2021/07/16 04:37:36;;;;;;;10.52;6.25;;;;;;;;;;4667726;30;20049;-84
2021/07/16 04:40:03;;;;;;;10.48;5.78;;;;;;;;;;4680241;30;20107;-84
2021/07/16 04:42:29;;;;;;;9.18;5.40;;;;;;;;;;4667105;30;20054;-84
2021/07/16 04:44:54;;;;;;;10.43;6.00;;;;;;;;;;4669665;30;20182;-84
2021/07/16 04:47:20;;;;;;;14.48;6.15;;;;;;;;;;4655807;30;20054;-84
2021/07/16 04:49:45;;;;;;;15.75;6.70;;;;;;;;;;4652237;30;20547;-84
2021/07/16 04:52:11;;;;;;;16.88;5.63;;;;;;;;;;4654540;30;20046;-84
2021/07/16 04:54:36;;;;;;;12.73;6.15;;;;;;;;;;4655845;30;20096;-84
2021/07/16 04:57:02;;;;;;;12.55;6.07;;;;;;;;;;4654949;30;20145;-84
2021/07/16 04:59:27;;;;;;;9.45;5.72;;;;;;;;;;4671656;30;20034;-84
2021/07/16 05:01:52;;;;;;;10.40;5.63;;;;;;;;;;4654284;30;20038;-84
2021/07/16 05:04:19;;;;;;;11.32;6.28;;;;;;;;;;4654640;30;20048;-84
2021/07/16 05:06:45;;;;;;;11.57;5.43;;;;;;;;;;4668172;30;20026;-83
2021/07/16 05:09:10;;;;;;;10.70;6.10;;;;;;;;;;4669337;30;20062;-84
2021/07/16 05:11:35;;;;;;;16.23;5.43;;;;;;;;;;4666489;30;20083;-84
2021/07/16 05:14:01;;;;;;;12.70;5.82;;;;;;;;;;4656269;30;20129;-84
2021/07/16 05:16:27;;;;;;;9.95;5.07;;;;;;;;;;4668781;30;20052;-84
2021/07/16 05:18:53;;;;;;;8.73;5.30;;;;;;;;;;4654531;30;20046;-84
2021/07/16 05:21:18;;;;;;;10.98;5.25;;;;;;;;;;4685538;30;20091;-84
2021/07/16 05:23:44;;;;;;;14.23;5.07;;;;;;;;;;4686011;30;20467;-84
2021/07/16 05:26:10;;;;;;;10.93;5.10;;;;;;;;;;4653712;30;20046;-84
2021/07/16 05:28:36;;;;;;;12.25;5.45;;;;;;;;;;4655252;30;20050;-84
2021/07/16 05:31:02;;;;;;;12.27;5.00;;;;;;;;;;4670312;30;20133;-83
2021/07/16 05:33:27;;;;;;;15.30;5.88;;;;;;;;;;4669370;30;20034;-84
2021/07/16 05:35:53;;;;;;;9.90;5.45;;;;;;;;;;4669859;30;20041;-84
2021/07/16 05:38:21;;;;;;;9.65;4.95;;;;;;;;;;4685746;30;20064;-84
2021/07/16 05:40:46;;;;;;;9.52;4.93;;;;;;;;;;4681810;30;20041;-84
2021/07/16 05:43:12;;;;;;;10.85;4.75;;;;;;;;;;4655606;30;20050;-84
2021/07/16 05:45:39;;;;;;;9.48;4.63;;;;;;;;;;4655466;30;20455;-83
2021/07/16 05:48:09;;;;;;;9.77;4.78;;;;;;;;;;4686927;30;20045;-84
2021/07/16 05:50:35;;;;;;;7.53;4.07;;;;;;;;;;4656936;30;20042;-84
2021/07/16 05:53:01;;;;;;;14.60;4.82;;;;;;;;;;4668109;30;20044;-84
2021/07/16 05:55:26;;;;;;;10.95;4.50;;;;;;;;;;4647996;30;20543;-84
2021/07/16 05:57:52;;;;;;;15.32;4.38;;;;;;;;;;4668950;30;20437;-84
2021/07/16 06:00:18;;;;;;;10.50;4.35;;;;;;;;;;4668231;30;20038;-84
2021/07/16 06:02:43;;;;;;;10.98;4.55;;;;;;;;;;4668657;30;20129;-84
2021/07/16 06:05:09;;;;;;;12.02;4.82;;;;;;;;;;4684182;30;20548;-83
2021/07/16 06:07:35;;;;;;;13.35;4.63;;;;;;;;;;4680498;30;20058;-84
2021/07/16 06:10:00;;;;;;;10.40;3.92;;;;;;;;;;4669611;30;20037;-84
2021/07/16 06:12:26;;;;;;;10.85;4.65;;;;;;;;;;4668274;30;20100;-83
2021/07/16 06:14:55;;;;;;;9.65;4.15;;;;;;;;;;4654974;30;20046;-83
2021/07/16 06:17:25;;;;;;;12.25;4.20;;;;;;;;;;4668972;30;20125;-83
2021/07/16 06:19:51;;;;;;;12.02;4.43;;;;;;;;;;4669807;30;20045;-83
2021/07/16 06:22:17;;;;;;;7.80;3.85;;;;;;;;;;4657145;30;20034;-83
2021/07/16 06:24:42;;;;;;;9.63;3.55;;;;;;;;;;4659485;30;20054;-83
2021/07/16 06:27:08;;;;;;;11.90;3.88;;;;;;;;;;4687006;30;20117;-83
2021/07/16 06:29:34;;;;;;;10.13;3.83;;;;;;;;;;4653938;30;20539;-84
2021/07/16 06:31:59;;;;;;;13.73;3.95;;;;;;;;;;4660393;30;20132;-84
2021/07/16 06:34:25;;;;;;;10.85;3.90;;;;;;;;;;4657363;30;20042;-83
2021/07/16 06:36:50;;;;;;;10.93;3.95;;;;;;;;;;4670652;30;20093;-83
2021/07/16 06:39:15;;;;;;;7.22;3.67;;;;;;;;;;4671735;30;20503;-83
2021/07/16 06:41:41;;;;;;;8.05;3.65;;;;;;;;;;4673839;30;20196;-83
2021/07/16 06:44:08;;;;;;;10.00;4.07;;;;;;;;;;4670605;30;20053;-83
2021/07/16 06:46:34;;;;;;;8.25;3.65;;;;;;;;;;4673572;30;20091;-83
2021/07/16 06:49:00;;;;;;;11.25;4.30;;;;;;;;;;4688536;30;20038;-83
2021/07/16 06:51:26;;;;;;;10.15;4.32;;;;;;;;;;4667158;30;20377;-83
2021/07/16 06:53:51;;;;;;;10.80;3.97;;;;;;;;;;4651096;30;20042;-83
2021/07/16 06:56:17;;;;;;;12.60;4.43;;;;;;;;;;4669590;30;20113;-83
2021/07/16 06:58:42;;;;;;;9.45;3.80;;;;;;;;;;4664847;30;20050;-83
2021/07/16 07:01:08;;;;;;;11.25;3.85;;;;;;;;;;4670765;30;20092;-83
2021/07/16 07:03:33;;;;;;;11.25;4.15;;;;;;;;;;4686999;30;20456;-83
2021/07/16 07:05:59;;;;;;;12.93;3.78;;;;;;;;;;4673066;30;20042;-83
2021/07/16 07:08:25;;;;;;;13.55;3.92;;;;;;;;;;4669730;30;20077;-83
2021/07/16 07:10:50;;;;;;;11.88;4.00;;;;;;;;;;4657884;30;20038;-83
2021/07/16 07:13:16;;;;;;;12.43;3.75;;;;;;;;;;4655587;30;20088;-83
2021/07/16 07:15:42;;;;;;;9.30;3.58;;;;;;;;;;4673036;30;20033;-83
2021/07/16 07:18:10;;;;;;;9.98;4.07;;;;;;;;;;4657775;30;20065;-84
2021/07/16 07:20:36;;;;;;;8.88;3.83;;;;;;;;;;4669245;30;20034;-83
2021/07/16 07:23:03;;;;;;;13.52;4.35;;;;;;;;;;4657411;30;20184;-83
2021/07/16 07:25:30;;;;;;;9.50;3.50;;;;;;;;;;4671187;30;20407;-83
2021/07/16 07:27:56;;;;;;;11.82;4.30;;;;;;;;;;4686161;30;20137;-84
2021/07/16 07:30:22;;;;;;;11.93;4.50;;;;;;;;;;4668004;30;20033;-83
2021/07/16 07:32:48;;;;;;;11.20;4.07;;;;;;;;;;4674118;30;20400;-84
2021/07/16 07:35:14;;;;;;;11.43;3.53;;;;;;;;;;4656645;30;20045;-84
2021/07/16 07:37:40;;;;;;;10.07;3.47;;;;;;;;;;4672547;30;20037;-83
2021/07/16 07:40:09;;;;;;;10.95;3.50;;;;;;;;;;4669546;30;20030;-84
2021/07/16 07:42:35;;;;;;;8.05;3.70;;;;;;;;;;4671992;30;20057;-83
2021/07/16 07:45:00;;;;;;;10.13;3.42;;;;;;;;;;4687156;30;20080;-84
2021/07/16 07:47:31;;;;;;;15.57;4.85;;;;;;;;;;4657363;30;20496;-83
2021/07/16 07:49:57;;;;;;;11.05;3.83;;;;;;;;;;4658078;30;20038;-83
2021/07/16 07:52:22;;;;;;;9.15;4.05;;;;;;;;;;4666916;30;20077;-83
2021/07/16 07:54:48;;;;;;;11.05;3.42;;;;;;;;;;4670930;30;20042;-84
2021/07/16 07:57:13;;;;;;;10.63;3.65;;;;;;;;;;4670097;30;20042;-83
2021/07/16 07:59:40;;;;;;;10.35;3.70;;;;;;;;;;4639113;30;21207;-83
2021/07/16 08:02:06;;;;;;;9.32;3.63;;;;;;;;;;4644280;30;20450;-83
2021/07/16 08:04:31;;;;;;;11.75;4.30;;;;;;;;;;4670278;30;20042;-83
2021/07/16 08:06:57;;;;;;;10.88;4.30;;;;;;;;;;4655736;30;20165;-83
2021/07/16 08:09:22;;;;;;;11.63;4.40;;;;;;;;;;4670866;30;20091;-83
2021/07/16 08:11:48;;;;;;;18.00;4.65;;;;;;;;;;4667670;30;20065;-83
2021/07/16 08:14:13;;;;;;;13.82;3.92;;;;;;;;;;4670449;30;20062;-83
2021/07/16 08:16:45;;;;;;;12.57;4.50;;;;;;;;;;4650953;30;20535;-83
2021/07/16 08:19:10;;;;;;;10.80;3.90;;;;;;;;;;4669782;30;20034;-83
2021/07/16 08:21:35;;;;;;;10.27;3.92;;;;;;;;;;4655627;30;20101;-83
2021/07/16 08:24:01;;;;;;;15.75;3.92;;;;;;;;;;4655647;30;21580;-83
2021/07/16 08:26:26;;;;;;;10.48;4.20;;;;;;;;;;4656451;30;20046;-83
2021/07/16 08:28:52;;;;;;;11.52;4.20;;;;;;;;;;4643616;30;20042;-83
2021/07/16 08:31:17;;;;;;;11.20;4.10;;;;;;;;;;4656931;30;20065;-83
2021/07/16 08:33:43;;;;;;;13.77;4.20;;;;;;;;;;4686101;30;20038;-83
2021/07/16 08:36:08;;;;;;;10.85;4.20;;;;;;;;;;4653756;30;20540;-83
2021/07/16 08:38:33;;;;;;;11.73;4.22;;;;;;;;;;4686469;30;20096;-84
2021/07/16 08:40:59;;;;;;;14.77;4.10;;;;;;;;;;4656778;30;20059;-84
2021/07/16 08:43:27;;;;;;;19.45;5.00;;;;;;;;;;4686392;30;20041;-83
2021/07/16 08:45:53;;;;;;;16.77;4.10;;;;;;;;;;4670819;30;20069;-83
2021/07/16 08:48:18;;;;;;;11.90;4.55;;;;;;;;;;4669823;30;20061;-84
2021/07/16 08:50:44;;;;;;;12.52;4.47;;;;;;;;;;4669852;30;20495;-85
2021/07/16 08:53:12;;;;;;;15.70;4.40;;;;;;;;;;4670095;30;20036;-83
2021/07/16 08:55:37;;;;;;;13.15;4.80;;;;;;;;;;4670795;30;20042;-83
2021/07/16 08:58:07;;;;;;;18.40;4.63;;;;;;;;;;4683065;30;20045;-83
2021/07/16 09:00:33;;;;;;;14.10;4.22;;;;;;;;;;4671715;30;20046;-83
2021/07/16 09:02:59;;;;;;;12.30;4.47;;;;;;;;;;4686020;30;20116;-83
2021/07/16 09:05:42;;;;;;;12.75;4.22;;;;;;;;;;4684045;30;20220;-83
2021/07/16 09:08:22;;;;;;;13.93;4.43;;;;;;;;;;4664479;30;20081;-83
2021/07/16 09:10:53;;;;;;;9.70;3.92;;;;;;;;;;4686056;30;20045;-83
2021/07/16 09:13:21;;;;;;;12.07;4.25;;;;;;;;;;4674444;30;20091;-83
2021/07/16 09:15:49;;;;;;;14.13;4.18;;;;;;;;;;4688441;30;20523;-83
2021/07/16 09:18:21;;;;;;;19.40;5.05;;;;;;;;;;4683795;30;20066;-83
2021/07/16 09:20:49;;;;;;;13.18;4.53;;;;;;;;;;4667014;30;20034;-83
2021/07/16 09:23:18;;;;;;;12.85;5.25;;;;;;;;;;4685760;30;20044;-83
2021/07/16 09:26:00;;;;;;;12.25;4.68;;;;;;;;;;4668795;30;20037;-83
2021/07/16 09:28:27;;;;;;;12.18;4.43;;;;;;;;;;4686054;30;20034;-83
2021/07/16 09:31:07;;;;;;;17.65;5.05;;;;;;;;;;4679345;30;20037;-83
2021/07/16 09:33:43;;;;;;;16.13;4.93;;;;;;;;;;4669871;30;21775;-83
2021/07/16 09:36:10;;;;;;;15.68;5.15;;;;;;;;;;4679502;30;20038;-83
2021/07/16 09:38:35;;;;;;;13.60;4.80;;;;;;;;;;4660560;30;20133;-83
2021/07/16 09:41:05;;;;;;;16.48;4.88;;;;;;;;;;4659856;30;21472;-82
2021/07/16 09:43:31;;;;;;;13.10;4.70;;;;;;;;;;4668051;30;20046;-83
2021/07/16 09:46:02;;;;;;;22.67;5.63;;;;;;;;;;4654659;30;20038;-82
2021/07/16 09:48:34;;;;;;;17.98;4.97;;;;;;;;;;4667550;30;20046;-83
2021/07/16 09:51:27;;;;;;;15.90;5.22;;;;;;;;;;4685243;30;20124;-82
2021/07/16 09:54:06;;;;;;;15.32;4.85;;;;;;;;;;4665436;30;20037;-82
2021/07/16 09:56:36;;;;;;;12.93;4.53;;;;;;;;;;4679407;30;20034;-82
2021/07/16 09:59:17;;;;;;;15.35;5.10;;;;;;;;;;4670283;30;20400;-83
2021/07/16 10:01:45;;;;;;;14.88;4.53;;;;;;;;;;4685117;30;20537;-83
2021/07/16 10:04:26;;;;;;;16.52;5.40;;;;;;;;;;4670054;30;20041;-83
2021/07/16 10:06:52;;;;;;;13.05;4.85;;;;;;;;;;4668996;30;20042;-82
2021/07/16 10:09:20;;;;;;;15.00;4.72;;;;;;;;;;4678352;30;20069;-83
2021/07/16 10:11:56;;;;;;;17.33;4.97;;;;;;;;;;4663756;30;20038;-83
2021/07/16 10:14:22;;;;;;;13.60;4.68;;;;;;;;;;4683128;30;20042;-82
2021/07/16 10:16:51;;;;;;;19.67;4.97;;;;;;;;;;4672647;30;20038;-83
2021/07/16 10:19:17;;;;;;;14.30;5.60;;;;;;;;;;4667178;30;20518;-82
2021/07/16 10:21:46;;;;;;;17.48;5.18;;;;;;;;;;4666847;30;20038;-82
2021/07/16 10:24:13;;;;;;;11.82;4.55;;;;;;;;;;4684079;30;20046;-82
2021/07/16 10:26:41;;;;;;;9.65;4.55;;;;;;;;;;4681961;30;20121;-82
2021/07/16 10:29:34;;;;;;;13.13;4.70;;;;;;;;;;4668529;30;20038;-83
2021/07/16 10:31:59;;;;;;;12.47;4.77;;;;;;;;;;4653738;30;20046;-82
2021/07/16 10:34:27;;;;;;;17.58;4.93;;;;;;;;;;4669954;30;20120;-83
2021/07/16 10:36:57;;;;;;;15.73;5.40;;;;;;;;;;4684928;30;20034;-83
2021/07/16 10:39:39;;;;;;;13.02;4.55;;;;;;;;;;4682443;30;20116;-83
2021/07/16 10:42:26;;;;;;;14.32;4.80;;;;;;;;;;4685028;30;20038;-83
2021/07/16 10:44:53;;;;;;;11.25;4.07;;;;;;;;;;4658376;30;20116;-82
2021/07/16 10:47:32;;;;;;;13.35;4.80;;;;;;;;;;4670020;30;20037;-82
2021/07/16 10:49:57;;;;;;;15.15;4.95;;;;;;;;;;4665103;30;20045;-82
2021/07/16 10:52:41;;;;;;;14.15;5.38;;;;;;;;;;4665740;30;20037;-82
2021/07/16 10:55:07;;;;;;;16.48;5.25;;;;;;;;;;4669399;30;20065;-82
2021/07/16 10:57:48;;;;;;;16.80;4.80;;;;;;;;;;4669690;30;20079;-83
2021/07/16 11:00:33;;;;;;;13.15;4.68;;;;;;;;;;4667380;30;20038;-83
2021/07/16 11:03:12;;;;;;;12.35;4.57;;;;;;;;;;4667652;30;20052;-82
2021/07/16 11:05:38;;;;;;;22.23;5.60;;;;;;;;;;4654277;30;20042;-83
2021/07/16 11:08:07;;;;;;;15.98;4.75;;;;;;;;;;4685024;30;20062;-83
2021/07/16 11:10:51;;;;;;;16.88;4.95;;;;;;;;;;4682774;30;20156;-82
2021/07/16 11:13:38;;;;;;;19.00;5.80;;;;;;;;;;4682907;30;20042;-83
2021/07/16 11:16:15;;;;;;;21.88;5.53;;;;;;;;;;4666827;30;20038;-83
2021/07/16 11:18:59;;;;;;;17.77;5.55;;;;;;;;;;4675008;30;20070;-82
2021/07/16 11:21:40;;;;;;;17.00;5.40;;;;;;;;;;4685975;30;20044;-83
2021/07/16 11:24:18;;;;;;;18.08;5.53;;;;;;;;;;4687918;30;20029;-83
2021/07/16 11:26:51;;;;;;;15.75;5.53;;;;;;;;;;4688114;30;20049;-83
2021/07/16 11:29:18;;;;;;;14.67;5.23;;;;;;;;;;4687003;30;20077;-83
2021/07/16 11:31:44;;;;;;;21.27;5.95;;;;;;;;;;4657729;30;20046;-83
2021/07/16 11:34:13;;;;;;;18.80;5.90;;;;;;;;;;4657334;30;20045;-83
2021/07/16 11:36:52;;;;;;;15.80;5.38;;;;;;;;;;4672151;30;20483;-83
2021/07/16 11:39:32;;;;;;;18.63;5.40;;;;;;;;;;4679231;30;20046;-83
2021/07/16 11:41:59;;;;;;;14.38;5.88;;;;;;;;;;4685907;30;20053;-82
2021/07/16 11:44:30;;;;;;;21.65;5.78;;;;;;;;;;4664874;30;20404;-83
2021/07/16 11:46:57;;;;;;;14.63;5.22;;;;;;;;;;4684924;30;20516;-82
2021/07/16 11:49:25;;;;;;;17.27;5.20;;;;;;;;;;4674778;30;20468;-83
2021/07/16 11:52:00;;;;;;;17.05;6.07;;;;;;;;;;4669699;30;20049;-82
2021/07/16 11:54:30;;;;;;;17.42;5.03;;;;;;;;;;4663765;30;20038;-82
2021/07/16 11:56:57;;;;;;;16.33;5.32;;;;;;;;;;4687010;30;20038;-83
2021/07/16 11:59:24;;;;;;;20.50;5.93;;;;;;;;;;4687476;30;20042;-83
2021/07/16 12:02:10;;;;;;;16.00;5.07;;;;;;;;;;4684533;30;20045;-83
2021/07/16 12:04:37;;;;;;;18.55;5.00;;;;;;;;;;4673963;30;20381;-82
2021/07/16 12:07:03;;;;;;;18.38;5.45;;;;;;;;;;4671526;30;20109;-82
2021/07/16 12:09:37;;;;;;;14.85;5.30;;;;;;;;;;4669934;30;20061;-82
2021/07/16 12:12:05;;;;;;;14.65;5.30;;;;;;;;;;4684693;30;20057;-82
2021/07/16 12:14:53;;;;;;;12.15;4.55;;;;;;;;;;4680486;30;20038;-83
2021/07/16 12:17:41;;;;;;;16.75;5.47;;;;;;;;;;4685111;30;20078;-82
2021/07/16 12:20:11;;;;;;;17.20;5.13;;;;;;;;;;4684488;30;20042;-83
2021/07/16 12:22:46;;;;;;;15.95;4.78;;;;;;;;;;4684024;30;20033;-82
2021/07/16 12:25:13;;;;;;;13.45;4.95;;;;;;;;;;4667452;30;20034;-82
2021/07/16 12:27:39;;;;;;;17.75;5.57;;;;;;;;;;4667098;30;20049;-82
2021/07/16 12:30:06;;;;;;;19.58;4.90;;;;;;;;;;4684693;30;20037;-83
2021/07/16 12:32:39;;;;;;;17.40;5.13;;;;;;;;;;4670665;30;20045;-82
2021/07/16 12:35:16;;;;;;;14.77;4.95;;;;;;;;;;4683717;30;20093;-82
2021/07/16 12:37:43;;;;;;;20.40;5.45;;;;;;;;;;4677932;30;20066;-83
2021/07/16 12:40:10;;;;;;;17.42;5.47;;;;;;;;;;4654114;30;20038;-82
2021/07/16 12:42:35;;;;;;;21.02;5.88;;;;;;;;;;4652624;30;20037;-82
2021/07/16 12:45:12;;;;;;;19.23;6.07;;;;;;;;;;4654202;30;20046;-83
2021/07/16 12:47:51;;;;;;;20.90;6.10;;;;;;;;;;4672429;30;20026;-83
2021/07/16 12:50:19;;;;;;;14.95;5.65;;;;;;;;;;4653509;30;20066;-82
2021/07/16 12:52:54;;;;;;;17.55;5.45;;;;;;;;;;4667693;30;20518;-82
2021/07/16 12:55:22;;;;;;;18.60;5.28;;;;;;;;;;4685324;30;20167;-83
2021/07/16 12:57:47;;;;;;;23.02;6.82;;;;;;;;;;4672170;30;20125;-83
2021/07/16 13:00:19;;;;;;;16.70;5.40;;;;;;;;;;4657359;30;20077;-83
2021/07/16 13:02:49;;;;;;;17.92;5.80;;;;;;;;;;4671708;30;20034;-83
2021/07/16 13:05:35;;;;;;;20.48;5.75;;;;;;;;;;4671243;30;20507;-82
2021/07/16 13:08:16;;;;;;;17.58;5.13;;;;;;;;;;4681236;30;20455;-82
2021/07/16 13:10:57;;;;;;;17.33;6.03;;;;;;;;;;4656726;30;20069;-82
2021/07/16 13:13:34;;;;;;;20.60;6.20;;;;;;;;;;4686896;30;20108;-83
2021/07/16 13:16:22;;;;;;;19.70;6.25;;;;;;;;;;4670399;30;20038;-83
2021/07/16 13:18:58;;;;;;;19.35;5.82;;;;;;;;;;4684668;30;20038;-82
2021/07/16 13:21:26;;;;;;;15.18;5.88;;;;;;;;;;4681288;30;20045;-82
2021/07/16 13:23:52;;;;;;;17.48;5.88;;;;;;;;;;4683596;30;20053;-83
2021/07/16 13:26:29;;;;;;;15.32;6.35;;;;;;;;;;4669079;30;20034;-82
2021/07/16 13:28:54;;;;;;;18.27;5.97;;;;;;;;;;4685981;30;20447;-83
2021/07/16 13:31:20;;;;;;;12.18;5.18;;;;;;;;;;4655490;30;20045;-82
2021/07/16 13:33:45;;;;;;;18.70;6.30;;;;;;;;;;4667773;30;20129;-82
2021/07/16 13:36:10;;;;;;;16.83;5.70;;;;;;;;;;4668315;30;20136;-82
2021/07/16 13:38:36;;;;;;;15.05;5.90;;;;;;;;;;4649859;30;20560;-82
2021/07/16 13:41:04;;;;;;;19.38;6.22;;;;;;;;;;4683429;30;20167;-83
2021/07/16 13:43:30;;;;;;;21.40;6.47;;;;;;;;;;4671671;30;20456;-83
2021/07/16 13:45:56;;;;;;;19.88;5.75;;;;;;;;;;4669010;30;20072;-82
2021/07/16 13:48:22;;;;;;;16.80;5.43;;;;;;;;;;4684273;30;20091;-82
2021/07/16 13:50:48;;;;;;;23.70;6.10;;;;;;;;;;4668248;30;20119;-82
2021/07/16 13:53:13;;;;;;;16.13;6.05;;;;;;;;;;4670221;30;20038;-83
2021/07/16 13:55:39;;;;;;;14.75;5.82;;;;;;;;;;4678866;30;20037;-82
2021/07/16 13:58:04;;;;;;;18.23;6.65;;;;;;;;;;4653037;30;20082;-82
2021/07/16 14:00:30;;;;;;;18.63;5.85;;;;;;;;;;4666884;30;20535;-81
2021/07/16 14:02:56;;;;;;;18.05;5.60;;;;;;;;;;4663825;30;20038;-82
2021/07/16 14:05:22;;;;;;;17.15;5.50;;;;;;;;;;4681434;30;20077;-81
2021/07/16 14:07:49;;;;;;;18.15;6.85;;;;;;;;;;4664698;30;20035;-82
2021/07/16 14:10:16;;;;;;;20.63;6.10;;;;;;;;;;4664258;30;20027;-82
2021/07/16 14:12:42;;;;;;;15.57;5.80;;;;;;;;;;4677402;30;20038;-82
2021/07/16 14:15:10;;;;;;;15.32;5.85;;;;;;;;;;4665278;30;20038;-82
2021/07/16 14:17:36;;;;;;;16.13;5.63;;;;;;;;;;4660126;30;20049;-82
2021/07/16 14:20:04;;;;;;;14.20;5.70;;;;;;;;;;4685640;30;20084;-82
2021/07/16 14:22:29;;;;;;;18.20;5.78;;;;;;;;;;4669649;30;20116;-82
2021/07/16 14:24:55;;;;;;;16.45;6.30;;;;;;;;;;4681867;30;20092;-83
2021/07/16 14:27:20;;;;;;;15.35;5.88;;;;;;;;;;4667733;30;20088;-83
2021/07/16 14:29:46;;;;;;;16.35;5.82;;;;;;;;;;4653654;30;20093;-82
2021/07/16 14:32:11;;;;;;;16.10;6.20;;;;;;;;;;4669464;30;20571;-82
2021/07/16 14:34:37;;;;;;;16.88;6.28;;;;;;;;;;4655462;30;20038;-83
2021/07/16 14:37:04;;;;;;;16.98;6.32;;;;;;;;;;4655815;30;20042;-83
2021/07/16 14:39:30;;;;;;;18.75;6.15;;;;;;;;;;4670031;30;20038;-83